Lontetree, Wyoming
Current Conditions -  °F | °C
As of 1:15 PM on Friday 31 Oct 2014 (Local Time) from KFBR Reporting Station
Clear Clear  
Wind Chill: 57°   Ceiling: Unl
Heat Index: 57°   Visibility: NA
Dew Point: 28°   Wind: 5mph
Humidity: 32%   Direction: 60°ENE
Pressure: 30.11"   Gusts: NA
Location:  41.04°N, 110.17°W
Report Text: KFBR 311915Z AUTO 06004KT CLR 14/M02 A3011 RMK AO2 T01411025 PWINO
Loading
Personal Weather Stations






























Interactive Weather Map
Tropical Storm Tracking
New forecast layout! Learn more

10-Day Weather Forecast

Advertisements
Track Severe Weather on mobile